sensor_id;sensor_type;location;lat;lon;timestamp;temperature;humidity
9730;DHT22;4904;49.152;11.004;2022-11-15T00:02:24;6.70;99.90
9730;DHT22;4904;49.152;11.004;2022-11-15T00:04:52;6.50;99.90
9730;DHT22;4904;49.152;11.004;2022-11-15T00:07:19;6.50;99.90
9730;DHT22;4904;49.152;11.004;2022-11-15T00:09:46;6.40;99.90
9730;DHT22;4904;49.152;11.004;2022-11-15T00:12:13;6.60;99.90
9730;DHT22;4904;49.152;11.004;2022-11-15T00:14:40;6.60;99.90
9730;DHT22;4904;49.152;11.004;2022-11-15T00:17:07;6.70;99.90
9730;DHT22;4904;49.152;11.004;2022-11-15T00:19:33;6.70;99.90
9730;DHT22;4904;49.152;11.004;2022-11-15T00:22:02;6.70;99.90
9730;DHT22;4904;49.152;11.004;2022-11-15T00:24:29;6.60;99.90
9730;DHT22;4904;49.152;11.004;2022-11-15T00:26:55;6.40;99.90
9730;DHT22;4904;49.152;11.004;2022-11-15T00:29:22;6.20;99.90
9730;DHT22;4904;49.152;11.004;2022-11-15T00:31:49;5.90;99.90
9730;DHT22;4904;49.152;11.004;2022-11-15T00:34:16;5.80;99.90
9730;DHT22;4904;49.152;11.004;2022-11-15T00:36:43;5.70;99.90
9730;DHT22;4904;49.152;11.004;2022-11-15T00:39:11;5.80;99.90
9730;DHT22;4904;49.152;11.004;2022-11-15T00:41:38;5.80;99.90
9730;DHT22;4904;49.152;11.004;2022-11-15T00:44:05;5.80;99.90
9730;DHT22;4904;49.152;11.004;2022-11-15T00:46:32;5.80;99.90
9730;DHT22;4904;49.152;11.004;2022-11-15T00:48:59;5.90;99.90
9730;DHT22;4904;49.152;11.004;2022-11-15T00:51:26;5.80;99.90
9730;DHT22;4904;49.152;11.004;2022-11-15T00:53:53;5.90;99.90
9730;DHT22;4904;49.152;11.004;2022-11-15T00:56:21;5.90;99.90
9730;DHT22;4904;49.152;11.004;2022-11-15T00:58:48;6.00;99.90
9730;DHT22;4904;49.152;11.004;2022-11-15T01:01:14;5.90;99.90
9730;DHT22;4904;49.152;11.004;2022-11-15T01:03:41;5.70;99.90
9730;DHT22;4904;49.152;11.004;2022-11-15T01:06:09;5.80;99.90
9730;DHT22;4904;49.152;11.004;2022-11-15T01:08:38;5.80;99.90
9730;DHT22;4904;49.152;11.004;2022-11-15T01:11:07;5.90;99.90
9730;DHT22;4904;49.152;11.004;2022-11-15T01:13:36;6.10;99.90
9730;DHT22;4904;49.152;11.004;2022-11-15T01:16:08;6.00;99.90
9730;DHT22;4904;49.152;11.004;2022-11-15T01:18:35;6.00;99.90
9730;DHT22;4904;49.152;11.004;2022-11-15T01:21:06;6.00;99.90
9730;DHT22;4904;49.152;11.004;2022-11-15T01:23:33;6.00;99.90
9730;DHT22;4904;49.152;11.004;2022-11-15T01:26:00;6.10;99.90
9730;DHT22;4904;49.152;11.004;2022-11-15T01:28:30;5.90;99.90
9730;DHT22;4904;49.152;11.004;2022-11-15T01:30:59;5.70;99.90
9730;DHT22;4904;49.152;11.004;2022-11-15T01:33:26;5.20;99.90
9730;DHT22;4904;49.152;11.004;2022-11-15T01:35:53;5.30;99.90
9730;DHT22;4904;49.152;11.004;2022-11-15T01:38:21;5.50;99.90
9730;DHT22;4904;49.152;11.004;2022-11-15T01:40:49;5.30;99.90
9730;DHT22;4904;49.152;11.004;2022-11-15T01:43:34;5.30;99.90
9730;DHT22;4904;49.152;11.004;2022-11-15T01:46:06;5.40;99.90
9730;DHT22;4904;49.152;11.004;2022-11-15T01:48:34;5.30;99.90
9730;DHT22;4904;49.152;11.004;2022-11-15T01:51:12;5.40;99.90
9730;DHT22;4904;49.152;11.004;2022-11-15T01:53:45;5.50;99.90
9730;DHT22;4904;49.152;11.004;2022-11-15T01:56:15;5.40;99.90
9730;DHT22;4904;49.152;11.004;2022-11-15T01:58:44;5.50;99.90
9730;DHT22;4904;49.152;11.004;2022-11-15T02:01:13;5.60;99.90
9730;DHT22;4904;49.152;11.004;2022-11-15T02:03:48;5.60;99.90
9730;DHT22;4904;49.152;11.004;2022-11-15T02:06:18;5.60;99.90
9730;DHT22;4904;49.152;11.004;2022-11-15T02:08:45;5.40;99.90
9730;DHT22;4904;49.152;11.004;2022-11-15T02:11:12;5.40;99.90
9730;DHT22;4904;49.152;11.004;2022-11-15T02:13:39;5.20;99.90
9730;DHT22;4904;49.152;11.004;2022-11-15T02:16:15;5.20;99.90
9730;DHT22;4904;49.152;11.004;2022-11-15T02:18:50;5.30;99.90
9730;DHT22;4904;49.152;11.004;2022-11-15T02:21:25;5.20;99.90
9730;DHT22;4904;49.152;11.004;2022-11-15T02:27:47;4.80;99.90
9730;DHT22;4904;49.152;11.004;2022-11-15T02:30:24;4.80;99.90
9730;DHT22;4904;49.152;11.004;2022-11-15T02:32:56;4.80;99.90
9730;DHT22;4904;49.152;11.004;2022-11-15T02:35:31;4.80;99.90
9730;DHT22;4904;49.152;11.004;2022-11-15T02:38:05;4.80;99.90
9730;DHT22;4904;49.152;11.004;2022-11-15T02:40:41;4.90;99.90
9730;DHT22;4904;49.152;11.004;2022-11-15T02:43:22;5.10;99.90
9730;DHT22;4904;49.152;11.004;2022-11-15T02:46:16;4.80;99.90
9730;DHT22;4904;49.152;11.004;2022-11-15T02:48:50;4.60;99.90
9730;DHT22;4904;49.152;11.004;2022-11-15T02:51:17;4.50;99.90
9730;DHT22;4904;49.152;11.004;2022-11-15T02:53:45;4.40;99.90
9730;DHT22;4904;49.152;11.004;2022-11-15T02:56:14;4.40;99.90
9730;DHT22;4904;49.152;11.004;2022-11-15T02:58:59;4.40;99.90
9730;DHT22;4904;49.152;11.004;2022-11-15T03:01:38;4.40;99.90
9730;DHT22;4904;49.152;11.004;2022-11-15T03:04:19;4.50;99.90
9730;DHT22;4904;49.152;11.004;2022-11-15T03:06:55;4.80;99.90
9730;DHT22;4904;49.152;11.004;2022-11-15T03:09:30;5.00;99.90
9730;DHT22;4904;49.152;11.004;2022-11-15T03:12:03;4.90;99.90
9730;DHT22;4904;49.152;11.004;2022-11-15T03:14:36;5.00;99.90
9730;DHT22;4904;49.152;11.004;2022-11-15T03:17:14;5.20;99.90
9730;DHT22;4904;49.152;11.004;2022-11-15T03:19:45;5.30;99.90
9730;DHT22;4904;49.152;11.004;2022-11-15T03:22:15;5.30;99.90
9730;DHT22;4904;49.152;11.004;2022-11-15T03:24:44;5.40;99.90
9730;DHT22;4904;49.152;11.004;2022-11-15T03:27:15;5.40;99.90
9730;DHT22;4904;49.152;11.004;2022-11-15T03:29:47;5.40;99.90
9730;DHT22;4904;49.152;11.004;2022-11-15T03:32:21;5.30;99.90
9730;DHT22;4904;49.152;11.004;2022-11-15T03:34:53;5.10;99.90
9730;DHT22;4904;49.152;11.004;2022-11-15T03:37:25;5.20;99.90
9730;DHT22;4904;49.152;11.004;2022-11-15T03:39:55;5.20;99.90
9730;DHT22;4904;49.152;11.004;2022-11-15T03:42:28;5.20;99.90
9730;DHT22;4904;49.152;11.004;2022-11-15T03:45:01;4.90;99.90
9730;DHT22;4904;49.152;11.004;2022-11-15T03:47:36;4.90;99.90
9730;DHT22;4904;49.152;11.004;2022-11-15T03:50:08;5.20;99.90
9730;DHT22;4904;49.152;11.004;2022-11-15T03:52:37;5.00;99.90
9730;DHT22;4904;49.152;11.004;2022-11-15T03:55:08;5.10;99.90
9730;DHT22;4904;49.152;11.004;2022-11-15T03:57:36;5.10;99.90
9730;DHT22;4904;49.152;11.004;2022-11-15T04:00:04;5.20;99.90
9730;DHT22;4904;49.152;11.004;2022-11-15T04:02:33;5.30;99.90
9730;DHT22;4904;49.152;11.004;2022-11-15T04:05:00;5.30;99.90
9730;DHT22;4904;49.152;11.004;2022-11-15T04:07:27;5.30;99.90
9730;DHT22;4904;49.152;11.004;2022-11-15T04:09:54;5.40;99.90
9730;DHT22;4904;49.152;11.004;2022-11-15T04:12:29;5.40;99.90
9730;DHT22;4904;49.152;11.004;2022-11-15T04:15:00;5.00;99.90
9730;DHT22;4904;49.152;11.004;2022-11-15T04:17:36;5.00;99.90
9730;DHT22;4904;49.152;11.004;2022-11-15T04:20:04;4.90;99.90
9730;DHT22;4904;49.152;11.004;2022-11-15T04:22:48;4.90;99.90
9730;DHT22;4904;49.152;11.004;2022-11-15T04:25:33;4.80;99.90
9730;DHT22;4904;49.152;11.004;2022-11-15T04:27:59;4.80;99.90
9730;DHT22;4904;49.152;11.004;2022-11-15T04:30:26;4.80;99.90
9730;DHT22;4904;49.152;11.004;2022-11-15T04:32:54;4.90;99.90
9730;DHT22;4904;49.152;11.004;2022-11-15T04:35:21;5.10;99.90
9730;DHT22;4904;49.152;11.004;2022-11-15T04:37:48;5.10;99.90
9730;DHT22;4904;49.152;11.004;2022-11-15T04:40:15;5.00;99.90
9730;DHT22;4904;49.152;11.004;2022-11-15T04:42:42;5.00;99.90
9730;DHT22;4904;49.152;11.004;2022-11-15T04:45:10;5.00;99.90
9730;DHT22;4904;49.152;11.004;2022-11-15T04:47:37;4.90;99.90
9730;DHT22;4904;49.152;11.004;2022-11-15T04:50:06;4.60;99.90
9730;DHT22;4904;49.152;11.004;2022-11-15T04:52:33;4.50;99.90
9730;DHT22;4904;49.152;11.004;2022-11-15T04:55:00;4.50;99.90
9730;DHT22;4904;49.152;11.004;2022-11-15T04:57:26;4.50;99.90
9730;DHT22;4904;49.152;11.004;2022-11-15T04:59:53;4.60;99.90
9730;DHT22;4904;49.152;11.004;2022-11-15T05:02:20;4.50;99.90
9730;DHT22;4904;49.152;11.004;2022-11-15T05:04:47;4.50;99.90
9730;DHT22;4904;49.152;11.004;2022-11-15T05:07:14;4.40;99.90
9730;DHT22;4904;49.152;11.004;2022-11-15T05:09:41;4.40;99.90
9730;DHT22;4904;49.152;11.004;2022-11-15T05:12:08;4.30;99.90
9730;DHT22;4904;49.152;11.004;2022-11-15T05:14:35;4.50;99.90
9730;DHT22;4904;49.152;11.004;2022-11-15T05:17:01;4.50;99.90
9730;DHT22;4904;49.152;11.004;2022-11-15T05:19:28;4.60;99.90
9730;DHT22;4904;49.152;11.004;2022-11-15T05:21:55;4.60;99.90
9730;DHT22;4904;49.152;11.004;2022-11-15T05:24:24;4.60;99.90
9730;DHT22;4904;49.152;11.004;2022-11-15T05:26:50;4.60;99.90
9730;DHT22;4904;49.152;11.004;2022-11-15T05:29:17;4.60;99.90
9730;DHT22;4904;49.152;11.004;2022-11-15T05:31:44;4.50;99.90
9730;DHT22;4904;49.152;11.004;2022-11-15T05:34:11;4.50;99.90
9730;DHT22;4904;49.152;11.004;2022-11-15T05:36:41;4.60;99.90
9730;DHT22;4904;49.152;11.004;2022-11-15T05:39:09;4.60;99.90
9730;DHT22;4904;49.152;11.004;2022-11-15T05:41:39;4.60;99.90
9730;DHT22;4904;49.152;11.004;2022-11-15T05:44:07;4.60;99.90
9730;DHT22;4904;49.152;11.004;2022-11-15T05:46:36;4.70;99.90
9730;DHT22;4904;49.152;11.004;2022-11-15T05:49:05;4.60;99.90
9730;DHT22;4904;49.152;11.004;2022-11-15T05:51:34;4.40;99.90
9730;DHT22;4904;49.152;11.004;2022-11-15T05:54:01;4.30;99.90
9730;DHT22;4904;49.152;11.004;2022-11-15T05:56:29;4.70;99.90
9730;DHT22;4904;49.152;11.004;2022-11-15T05:58:58;4.40;99.90
9730;DHT22;4904;49.152;11.004;2022-11-15T06:01:26;4.40;99.90
9730;DHT22;4904;49.152;11.004;2022-11-15T06:03:53;4.40;99.90
9730;DHT22;4904;49.152;11.004;2022-11-15T06:06:20;4.40;99.90
9730;DHT22;4904;49.152;11.004;2022-11-15T06:08:47;4.50;99.90
9730;DHT22;4904;49.152;11.004;2022-11-15T06:11:14;4.40;99.90
9730;DHT22;4904;49.152;11.004;2022-11-15T06:13:41;4.40;99.90
9730;DHT22;4904;49.152;11.004;2022-11-15T06:16:09;4.40;99.90
9730;DHT22;4904;49.152;11.004;2022-11-15T06:18:36;4.70;99.90
9730;DHT22;4904;49.152;11.004;2022-11-15T06:21:03;4.40;99.90
9730;DHT22;4904;49.152;11.004;2022-11-15T06:23:32;4.50;99.90
9730;DHT22;4904;49.152;11.004;2022-11-15T06:26:00;4.40;99.90
9730;DHT22;4904;49.152;11.004;2022-11-15T06:28:28;4.40;99.90
9730;DHT22;4904;49.152;11.004;2022-11-15T06:30:55;4.30;99.90
9730;DHT22;4904;49.152;11.004;2022-11-15T06:33:24;4.20;99.90
9730;DHT22;4904;49.152;11.004;2022-11-15T06:35:51;4.10;99.90
9730;DHT22;4904;49.152;11.004;2022-11-15T06:38:18;4.00;99.90
9730;DHT22;4904;49.152;11.004;2022-11-15T06:40:45;4.00;99.90
9730;DHT22;4904;49.152;11.004;2022-11-15T06:43:12;4.00;99.90
9730;DHT22;4904;49.152;11.004;2022-11-15T06:45:40;4.00;99.90
9730;DHT22;4904;49.152;11.004;2022-11-15T06:48:07;3.90;99.90
9730;DHT22;4904;49.152;11.004;2022-11-15T06:50:35;3.90;99.90
9730;DHT22;4904;49.152;11.004;2022-11-15T06:53:04;4.00;99.90
9730;DHT22;4904;49.152;11.004;2022-11-15T06:55:31;4.10;99.90
9730;DHT22;4904;49.152;11.004;2022-11-15T06:57:58;4.10;99.90
9730;DHT22;4904;49.152;11.004;2022-11-15T07:00:25;4.20;99.90
9730;DHT22;4904;49.152;11.004;2022-11-15T07:02:51;4.30;99.90
9730;DHT22;4904;49.152;11.004;2022-11-15T07:05:18;4.30;99.90
9730;DHT22;4904;49.152;11.004;2022-11-15T07:07:52;4.40;99.90
9730;DHT22;4904;49.152;11.004;2022-11-15T07:10:19;4.40;99.90
9730;DHT22;4904;49.152;11.004;2022-11-15T07:12:47;4.50;99.90
9730;DHT22;4904;49.152;11.004;2022-11-15T07:15:14;4.60;99.90
9730;DHT22;4904;49.152;11.004;2022-11-15T07:17:41;4.70;99.90
9730;DHT22;4904;49.152;11.004;2022-11-15T07:20:09;4.90;99.90
9730;DHT22;4904;49.152;11.004;2022-11-15T07:22:36;4.80;99.90
9730;DHT22;4904;49.152;11.004;2022-11-15T07:25:05;4.80;99.90
9730;DHT22;4904;49.152;11.004;2022-11-15T07:27:32;5.00;99.90
9730;DHT22;4904;49.152;11.004;2022-11-15T07:29:59;5.10;99.90
9730;DHT22;4904;49.152;11.004;2022-11-15T07:32:26;5.20;99.90
9730;DHT22;4904;49.152;11.004;2022-11-15T07:34:53;5.30;99.90
9730;DHT22;4904;49.152;11.004;2022-11-15T07:37:20;5.40;99.90
9730;DHT22;4904;49.152;11.004;2022-11-15T07:39:47;5.50;99.90
9730;DHT22;4904;49.152;11.004;2022-11-15T07:42:15;5.60;99.90
9730;DHT22;4904;49.152;11.004;2022-11-15T07:44:59;5.80;99.90
9730;DHT22;4904;49.152;11.004;2022-11-15T07:47:28;5.80;99.90
9730;DHT22;4904;49.152;11.004;2022-11-15T07:49:55;5.90;99.90
9730;DHT22;4904;49.152;11.004;2022-11-15T07:52:22;5.90;99.90
9730;DHT22;4904;49.152;11.004;2022-11-15T07:54:49;6.00;99.90
9730;DHT22;4904;49.152;11.004;2022-11-15T07:57:17;6.10;99.90
9730;DHT22;4904;49.152;11.004;2022-11-15T07:59:44;6.20;99.90
9730;DHT22;4904;49.152;11.004;2022-11-15T08:02:11;6.60;99.90
9730;DHT22;4904;49.152;11.004;2022-11-15T08:04:38;6.70;99.90
9730;DHT22;4904;49.152;11.004;2022-11-15T08:07:05;7.00;99.90
9730;DHT22;4904;49.152;11.004;2022-11-15T08:09:32;7.20;99.90
9730;DHT22;4904;49.152;11.004;2022-11-15T08:11:59;7.50;99.90
9730;DHT22;4904;49.152;11.004;2022-11-15T08:14:27;7.90;99.90
9730;DHT22;4904;49.152;11.004;2022-11-15T08:16:54;7.70;99.90
9730;DHT22;4904;49.152;11.004;2022-11-15T08:19:21;8.10;99.90
9730;DHT22;4904;49.152;11.004;2022-11-15T08:21:48;8.30;99.90
9730;DHT22;4904;49.152;11.004;2022-11-15T08:24:15;8.50;99.90
9730;DHT22;4904;49.152;11.004;2022-11-15T08:26:43;8.70;99.90
9730;DHT22;4904;49.152;11.004;2022-11-15T08:29:10;8.90;99.90
9730;DHT22;4904;49.152;11.004;2022-11-15T08:31:38;9.20;99.90
9730;DHT22;4904;49.152;11.004;2022-11-15T08:34:05;9.30;99.90
9730;DHT22;4904;49.152;11.004;2022-11-15T08:36:33;9.40;99.90
9730;DHT22;4904;49.152;11.004;2022-11-15T08:38:59;9.50;99.90
9730;DHT22;4904;49.152;11.004;2022-11-15T08:41:29;9.80;99.90
9730;DHT22;4904;49.152;11.004;2022-11-15T08:43:57;10.00;99.90
9730;DHT22;4904;49.152;11.004;2022-11-15T08:46:24;10.40;99.90
9730;DHT22;4904;49.152;11.004;2022-11-15T08:48:53;10.60;99.90
9730;DHT22;4904;49.152;11.004;2022-11-15T08:51:20;10.80;99.90
9730;DHT22;4904;49.152;11.004;2022-11-15T08:53:47;11.10;99.90
9730;DHT22;4904;49.152;11.004;2022-11-15T08:56:14;11.50;99.90
9730;DHT22;4904;49.152;11.004;2022-11-15T08:58:41;11.60;99.90
9730;DHT22;4904;49.152;11.004;2022-11-15T09:01:15;11.70;99.90
9730;DHT22;4904;49.152;11.004;2022-11-15T09:03:43;11.70;99.90
9730;DHT22;4904;49.152;11.004;2022-11-15T09:06:11;12.00;99.90
9730;DHT22;4904;49.152;11.004;2022-11-15T09:08:38;12.30;99.90
9730;DHT22;4904;49.152;11.004;2022-11-15T09:11:06;12.50;99.90
9730;DHT22;4904;49.152;11.004;2022-11-15T09:13:34;12.80;99.90
9730;DHT22;4904;49.152;11.004;2022-11-15T09:16:03;13.00;99.90
9730;DHT22;4904;49.152;11.004;2022-11-15T09:18:31;13.00;99.90
9730;DHT22;4904;49.152;11.004;2022-11-15T09:20:59;12.90;99.90
9730;DHT22;4904;49.152;11.004;2022-11-15T09:23:29;12.90;99.90
9730;DHT22;4904;49.152;11.004;2022-11-15T09:25:59;13.00;99.90
9730;DHT22;4904;49.152;11.004;2022-11-15T09:28:26;13.10;99.90
9730;DHT22;4904;49.152;11.004;2022-11-15T09:30:56;13.30;99.90
9730;DHT22;4904;49.152;11.004;2022-11-15T09:33:24;13.40;99.90
9730;DHT22;4904;49.152;11.004;2022-11-15T09:35:51;13.50;99.90
9730;DHT22;4904;49.152;11.004;2022-11-15T09:38:18;13.60;99.90
9730;DHT22;4904;49.152;11.004;2022-11-15T09:40:49;13.70;99.90
9730;DHT22;4904;49.152;11.004;2022-11-15T09:43:31;13.80;99.90
9730;DHT22;4904;49.152;11.004;2022-11-15T09:46:08;13.80;99.90
9730;DHT22;4904;49.152;11.004;2022-11-15T09:48:49;13.90;99.90
9730;DHT22;4904;49.152;11.004;2022-11-15T09:51:24;14.00;99.90
9730;DHT22;4904;49.152;11.004;2022-11-15T09:53:58;14.20;99.90
9730;DHT22;4904;49.152;11.004;2022-11-15T09:56:30;14.30;99.90
9730;DHT22;4904;49.152;11.004;2022-11-15T10:01:55;14.20;99.90
9730;DHT22;4904;49.152;11.004;2022-11-15T10:04:25;14.20;99.90
9730;DHT22;4904;49.152;11.004;2022-11-15T10:06:58;14.20;99.90
9730;DHT22;4904;49.152;11.004;2022-11-15T10:09:31;14.20;99.90
9730;DHT22;4904;49.152;11.004;2022-11-15T10:12:02;14.20;99.90
9730;DHT22;4904;49.152;11.004;2022-11-15T10:14:30;14.30;99.90
9730;DHT22;4904;49.152;11.004;2022-11-15T10:17:33;14.30;99.90
9730;DHT22;4904;49.152;11.004;2022-11-15T10:20:10;14.30;99.90
9730;DHT22;4904;49.152;11.004;2022-11-15T10:22:40;14.30;99.90
9730;DHT22;4904;49.152;11.004;2022-11-15T10:25:21;14.30;99.90
9730;DHT22;4904;49.152;11.004;2022-11-15T10:27:54;14.20;99.90
9730;DHT22;4904;49.152;11.004;2022-11-15T10:30:22;14.20;99.90
9730;DHT22;4904;49.152;11.004;2022-11-15T10:32:49;14.20;99.90
9730;DHT22;4904;49.152;11.004;2022-11-15T10:35:22;14.20;99.90
9730;DHT22;4904;49.152;11.004;2022-11-15T10:37:49;14.20;99.90
9730;DHT22;4904;49.152;11.004;2022-11-15T10:40:20;14.30;99.90
9730;DHT22;4904;49.152;11.004;2022-11-15T10:42:48;14.30;99.90
9730;DHT22;4904;49.152;11.004;2022-11-15T10:45:28;14.30;99.90
9730;DHT22;4904;49.152;11.004;2022-11-15T10:48:19;14.30;99.90
9730;DHT22;4904;49.152;11.004;2022-11-15T10:50:48;14.30;99.90
9730;DHT22;4904;49.152;11.004;2022-11-15T10:53:19;14.10;99.90
9730;DHT22;4904;49.152;11.004;2022-11-15T10:55:50;13.90;99.90
9730;DHT22;4904;49.152;11.004;2022-11-15T10:58:27;14.00;99.90
9730;DHT22;4904;49.152;11.004;2022-11-15T11:01:09;14.00;99.90
9730;DHT22;4904;49.152;11.004;2022-11-15T11:03:38;13.80;99.90
9730;DHT22;4904;49.152;11.004;2022-11-15T11:06:08;13.60;99.90
9730;DHT22;4904;49.152;11.004;2022-11-15T11:08:36;13.70;99.90
9730;DHT22;4904;49.152;11.004;2022-11-15T11:11:04;13.70;99.90
9730;DHT22;4904;49.152;11.004;2022-11-15T11:13:34;13.80;99.90
9730;DHT22;4904;49.152;11.004;2022-11-15T11:16:26;14.00;99.90
9730;DHT22;4904;49.152;11.004;2022-11-15T11:19:04;14.00;99.90
9730;DHT22;4904;49.152;11.004;2022-11-15T11:21:43;14.10;99.90
9730;DHT22;4904;49.152;11.004;2022-11-15T11:24:20;14.10;99.90
9730;DHT22;4904;49.152;11.004;2022-11-15T11:27:04;14.30;99.90
9730;DHT22;4904;49.152;11.004;2022-11-15T11:29:43;14.40;99.90
9730;DHT22;4904;49.152;11.004;2022-11-15T11:32:30;14.20;99.90
9730;DHT22;4904;49.152;11.004;2022-11-15T11:35:08;14.30;99.90
9730;DHT22;4904;49.152;11.004;2022-11-15T11:37:45;14.40;99.90
9730;DHT22;4904;49.152;11.004;2022-11-15T11:40:22;14.40;99.90
9730;DHT22;4904;49.152;11.004;2022-11-15T11:42:55;14.60;99.90
9730;DHT22;4904;49.152;11.004;2022-11-15T11:45:37;14.80;99.90
9730;DHT22;4904;49.152;11.004;2022-11-15T11:48:13;14.90;99.90
9730;DHT22;4904;49.152;11.004;2022-11-15T11:50:41;15.00;99.90
9730;DHT22;4904;49.152;11.004;2022-11-15T11:53:13;15.10;99.90
9730;DHT22;4904;49.152;11.004;2022-11-15T11:55:43;15.10;99.90
9730;DHT22;4904;49.152;11.004;2022-11-15T11:58:14;15.10;99.90
9730;DHT22;4904;49.152;11.004;2022-11-15T12:00:46;15.10;99.90
9730;DHT22;4904;49.152;11.004;2022-11-15T12:03:22;15.10;99.90
9730;DHT22;4904;49.152;11.004;2022-11-15T12:05:55;15.10;99.90
9730;DHT22;4904;49.152;11.004;2022-11-15T12:08:39;15.20;99.90
9730;DHT22;4904;49.152;11.004;2022-11-15T12:11:12;15.20;99.90
9730;DHT22;4904;49.152;11.004;2022-11-15T12:13:40;15.30;99.90
9730;DHT22;4904;49.152;11.004;2022-11-15T12:16:12;15.20;99.90
9730;DHT22;4904;49.152;11.004;2022-11-15T12:18:47;15.10;99.90
9730;DHT22;4904;49.152;11.004;2022-11-15T12:21:19;15.10;99.90
9730;DHT22;4904;49.152;11.004;2022-11-15T12:23:50;15.00;99.90
9730;DHT22;4904;49.152;11.004;2022-11-15T12:26:21;15.00;99.90
9730;DHT22;4904;49.152;11.004;2022-11-15T12:28:53;14.90;99.90
9730;DHT22;4904;49.152;11.004;2022-11-15T12:31:26;15.00;99.90
9730;DHT22;4904;49.152;11.004;2022-11-15T12:34:02;15.20;99.90
9730;DHT22;4904;49.152;11.004;2022-11-15T12:36:39;15.40;99.90
9730;DHT22;4904;49.152;11.004;2022-11-15T12:39:08;15.50;99.90
9730;DHT22;4904;49.152;11.004;2022-11-15T12:41:36;15.50;99.90
9730;DHT22;4904;49.152;11.004;2022-11-15T12:44:04;15.30;99.90
9730;DHT22;4904;49.152;11.004;2022-11-15T12:47:02;15.40;99.90
9730;DHT22;4904;49.152;11.004;2022-11-15T12:49:44;15.20;99.90
9730;DHT22;4904;49.152;11.004;2022-11-15T12:52:11;15.20;99.90
9730;DHT22;4904;49.152;11.004;2022-11-15T12:54:58;15.20;99.90
9730;DHT22;4904;49.152;11.004;2022-11-15T12:57:34;15.30;99.90
9730;DHT22;4904;49.152;11.004;2022-11-15T13:03:27;15.50;99.90
9730;DHT22;4904;49.152;11.004;2022-11-15T13:06:33;15.40;99.90
9730;DHT22;4904;49.152;11.004;2022-11-15T13:09:01;15.50;99.90
9730;DHT22;4904;49.152;11.004;2022-11-15T13:11:50;15.50;99.90
9730;DHT22;4904;49.152;11.004;2022-11-15T13:17:35;15.50;99.90
9730;DHT22;4904;49.152;11.004;2022-11-15T13:20:29;15.60;99.90
9730;DHT22;4904;49.152;11.004;2022-11-15T13:23:07;15.50;99.90
9730;DHT22;4904;49.152;11.004;2022-11-15T13:28:43;15.60;99.90
9730;DHT22;4904;49.152;11.004;2022-11-15T13:31:21;15.70;99.90
9730;DHT22;4904;49.152;11.004;2022-11-15T13:33:49;15.80;99.90
9730;DHT22;4904;49.152;11.004;2022-11-15T13:36:20;15.90;99.90
9730;DHT22;4904;49.152;11.004;2022-11-15T13:38:57;15.90;99.90
9730;DHT22;4904;49.152;11.004;2022-11-15T13:41:27;15.80;99.90
9730;DHT22;4904;49.152;11.004;2022-11-15T13:43:55;15.90;99.90
9730;DHT22;4904;49.152;11.004;2022-11-15T13:46:24;15.80;99.90
9730;DHT22;4904;49.152;11.004;2022-11-15T13:48:56;15.70;99.90
9730;DHT22;4904;49.152;11.004;2022-11-15T13:51:32;15.70;99.90
9730;DHT22;4904;49.152;11.004;2022-11-15T13:54:07;15.80;99.90
9730;DHT22;4904;49.152;11.004;2022-11-15T13:56:44;15.90;99.90
9730;DHT22;4904;49.152;11.004;2022-11-15T13:59:18;15.90;99.90
9730;DHT22;4904;49.152;11.004;2022-11-15T14:01:48;15.90;99.90
9730;DHT22;4904;49.152;11.004;2022-11-15T14:04:19;15.90;99.90
9730;DHT22;4904;49.152;11.004;2022-11-15T14:06:48;15.90;99.90
9730;DHT22;4904;49.152;11.004;2022-11-15T14:09:34;15.70;99.90
9730;DHT22;4904;49.152;11.004;2022-11-15T14:12:19;15.70;99.90
9730;DHT22;4904;49.152;11.004;2022-11-15T14:14:48;15.70;99.90
9730;DHT22;4904;49.152;11.004;2022-11-15T14:17:20;15.80;99.90
9730;DHT22;4904;49.152;11.004;2022-11-15T14:19:49;15.70;99.90
9730;DHT22;4904;49.152;11.004;2022-11-15T14:22:21;15.40;99.90
9730;DHT22;4904;49.152;11.004;2022-11-15T14:25:22;15.30;99.90
9730;DHT22;4904;49.152;11.004;2022-11-15T14:28:10;15.50;99.90
9730;DHT22;4904;49.152;11.004;2022-11-15T14:30:37;15.40;99.90
9730;DHT22;4904;49.152;11.004;2022-11-15T14:33:19;15.30;99.90
9730;DHT22;4904;49.152;11.004;2022-11-15T14:35:46;15.40;99.90
9730;DHT22;4904;49.152;11.004;2022-11-15T14:38:13;15.20;99.90
9730;DHT22;4904;49.152;11.004;2022-11-15T14:40:42;15.00;99.90
9730;DHT22;4904;49.152;11.004;2022-11-15T14:43:10;14.90;99.90
9730;DHT22;4904;49.152;11.004;2022-11-15T14:45:38;14.70;99.90
9730;DHT22;4904;49.152;11.004;2022-11-15T14:48:05;14.70;99.90
9730;DHT22;4904;49.152;11.004;2022-11-15T14:50:32;14.70;99.90
9730;DHT22;4904;49.152;11.004;2022-11-15T14:55:27;14.40;99.90
9730;DHT22;4904;49.152;11.004;2022-11-15T14:58:08;14.30;99.90
9730;DHT22;4904;49.152;11.004;2022-11-15T15:00:36;14.10;99.90
9730;DHT22;4904;49.152;11.004;2022-11-15T15:03:05;13.70;99.90
9730;DHT22;4904;49.152;11.004;2022-11-15T15:05:34;13.50;99.90
9730;DHT22;4904;49.152;11.004;2022-11-15T15:08:40;13.50;99.90
9730;DHT22;4904;49.152;11.004;2022-11-15T15:11:10;13.60;99.90
9730;DHT22;4904;49.152;11.004;2022-11-15T15:13:40;13.50;99.90
9730;DHT22;4904;49.152;11.004;2022-11-15T15:16:09;13.30;99.90
9730;DHT22;4904;49.152;11.004;2022-11-15T15:18:36;13.20;99.90
9730;DHT22;4904;49.152;11.004;2022-11-15T15:21:20;13.00;99.90
9730;DHT22;4904;49.152;11.004;2022-11-15T15:23:49;13.00;99.90
9730;DHT22;4904;49.152;11.004;2022-11-15T15:26:16;12.80;99.90
9730;DHT22;4904;49.152;11.004;2022-11-15T15:28:45;12.40;99.90
9730;DHT22;4904;49.152;11.004;2022-11-15T15:31:15;12.20;99.90
9730;DHT22;4904;49.152;11.004;2022-11-15T15:33:43;12.10;99.90
9730;DHT22;4904;49.152;11.004;2022-11-15T15:36:35;12.10;99.90
9730;DHT22;4904;49.152;11.004;2022-11-15T15:39:03;12.20;99.90
9730;DHT22;4904;49.152;11.004;2022-11-15T15:41:30;12.00;99.90
9730;DHT22;4904;49.152;11.004;2022-11-15T15:44:01;12.00;99.90
9730;DHT22;4904;49.152;11.004;2022-11-15T15:46:28;12.00;99.90
9730;DHT22;4904;49.152;11.004;2022-11-15T15:52:19;12.10;99.90
9730;DHT22;4904;49.152;11.004;2022-11-15T15:54:46;12.00;99.90
9730;DHT22;4904;49.152;11.004;2022-11-15T15:57:14;11.60;99.90
9730;DHT22;4904;49.152;11.004;2022-11-15T15:59:43;11.50;99.90
9730;DHT22;4904;49.152;11.004;2022-11-15T16:02:14;11.50;99.90
9730;DHT22;4904;49.152;11.004;2022-11-15T16:04:41;11.50;99.90
9730;DHT22;4904;49.152;11.004;2022-11-15T16:07:16;11.40;99.90
9730;DHT22;4904;49.152;11.004;2022-11-15T16:09:43;11.50;99.90
9730;DHT22;4904;49.152;11.004;2022-11-15T16:12:30;11.60;99.90
9730;DHT22;4904;49.152;11.004;2022-11-15T16:14:59;11.70;99.90
9730;DHT22;4904;49.152;11.004;2022-11-15T16:17:31;11.70;99.90
9730;DHT22;4904;49.152;11.004;2022-11-15T16:19:59;11.90;99.90
9730;DHT22;4904;49.152;11.004;2022-11-15T16:22:27;11.90;99.90
9730;DHT22;4904;49.152;11.004;2022-11-15T16:24:54;11.60;99.90
9730;DHT22;4904;49.152;11.004;2022-11-15T16:27:22;11.40;99.90
9730;DHT22;4904;49.152;11.004;2022-11-15T16:29:49;11.40;99.90
9730;DHT22;4904;49.152;11.004;2022-11-15T16:32:18;11.40;99.90
9730;DHT22;4904;49.152;11.004;2022-11-15T16:34:46;11.40;99.90
9730;DHT22;4904;49.152;11.004;2022-11-15T16:37:21;11.50;99.90
9730;DHT22;4904;49.152;11.004;2022-11-15T16:42:52;11.60;99.90
9730;DHT22;4904;49.152;11.004;2022-11-15T16:45:20;11.40;99.90